createdAt,value
2022-08-21T10:26:28.831Z,3.42
2022-08-21T10:30:53.226Z,2.80
2022-08-21T10:35:05.818Z,2.30
2022-08-21T10:39:38.226Z,2.15
2022-08-21T10:44:04.852Z,2.28
2022-08-21T10:52:33.098Z,3.00
2022-08-21T10:56:39.326Z,2.95
2022-08-21T11:00:49.429Z,2.30
2022-08-21T11:05:02.219Z,2.20
2022-08-21T11:09:19.354Z,1.73
2022-08-21T11:13:52.127Z,2.40
2022-08-21T11:18:22.240Z,2.10
2022-08-21T11:22:59.973Z,1.80
2022-08-21T11:27:16.051Z,1.90
2022-08-21T11:31:43.407Z,1.60
2022-08-21T11:35:55.170Z,2.40
2022-08-21T11:40:13.570Z,2.50
2022-08-21T11:44:35.684Z,2.33
2022-08-21T11:48:49.982Z,2.40
2022-08-21T11:53:10.440Z,2.40
2022-08-21T11:57:32.601Z,2.42
2022-08-21T12:01:40.811Z,2.20
2022-08-21T12:05:47.151Z,2.10
2022-08-21T12:09:58.050Z,2.10
2022-08-21T12:14:05.751Z,2.10
2022-08-21T12:18:31.477Z,1.80
2022-08-21T12:22:41.845Z,1.73
2022-08-21T12:26:57.321Z,1.73
2022-08-21T12:30:59.286Z,1.60
2022-08-21T12:35:24.583Z,1.77
2022-08-21T12:39:29.993Z,2.47
2022-08-21T12:43:35.274Z,2.03
2022-08-21T12:47:49.735Z,2.00
2022-08-21T12:52:01.255Z,2.13
2022-08-21T12:56:05.127Z,1.70
2022-08-21T13:00:13.841Z,1.40
2022-08-21T13:04:22.200Z,1.50
2022-08-21T13:08:27.029Z,1.58
2022-08-21T13:12:32.529Z,1.60
2022-08-21T13:16:36.223Z,1.50
2022-08-21T13:20:42.129Z,1.60
2022-08-21T13:24:44.039Z,1.90
2022-08-21T13:28:48.367Z,1.60
2022-08-21T13:32:58.112Z,2.00
2022-08-21T13:37:02.641Z,1.50
2022-08-21T13:41:16.890Z,1.77
2022-08-21T13:45:28.425Z,1.60
2022-08-21T13:49:40.506Z,1.70
2022-08-21T13:53:42.150Z,1.90
2022-08-21T13:57:44.030Z,1.90
2022-08-21T14:02:00.338Z,1.58
2022-08-21T14:06:02.822Z,1.63
2022-08-21T14:10:07.309Z,1.50
2022-08-21T14:14:22.105Z,1.83
2022-08-21T14:18:26.421Z,1.60
2022-08-21T14:22:39.422Z,1.70
2022-08-21T14:26:52.329Z,1.80
2022-08-21T14:30:56.599Z,1.60
2022-08-21T14:34:59.355Z,1.65
2022-08-21T14:39:01.164Z,1.52
2022-08-21T14:43:04.162Z,1.70
2022-08-21T14:47:06.057Z,2.17
2022-08-21T14:51:07.863Z,1.60
2022-08-21T14:55:14.691Z,1.90
2022-08-21T14:59:16.467Z,2.00
2022-08-21T15:03:18.411Z,2.00
2022-08-21T15:07:21.859Z,1.92
2022-08-21T15:11:41.465Z,2.22
2022-08-21T15:15:46.486Z,2.20
2022-08-21T15:19:48.168Z,2.08
2022-08-21T15:23:49.973Z,1.40
2022-08-21T15:27:51.900Z,1.52
2022-08-21T15:31:59.296Z,1.90
2022-08-21T15:36:00.967Z,1.65
2022-08-21T15:40:04.700Z,1.80
2022-08-21T15:44:06.472Z,1.52
2022-08-21T15:48:08.220Z,1.50
2022-08-21T15:52:09.890Z,1.50
2022-08-21T15:56:27.850Z,1.48
2022-08-21T16:00:32.021Z,1.40
2022-08-21T16:04:33.700Z,1.13
2022-08-21T17:53:42.683Z,1.40
2022-08-21T17:57:45.599Z,1.58
2022-08-21T18:01:48.092Z,1.55
2022-08-21T18:05:51.677Z,1.70
2022-08-21T18:09:53.775Z,1.38
2022-08-21T18:50:41.349Z,1.48
2022-08-21T18:54:43.252Z,1.88
2022-08-21T18:58:45.432Z,1.70
2022-08-21T19:02:47.273Z,1.92
2022-08-21T19:06:49.057Z,1.83
2022-08-21T19:10:55.245Z,1.73
2022-08-21T19:14:57.112Z,1.77
2022-08-21T19:19:01.420Z,1.70
2022-08-21T19:23:05.644Z,1.30
2022-08-21T19:27:07.757Z,1.50
2022-08-21T19:31:16.340Z,1.70
